Fritz Creek, Alaska
Current Conditions -  °F | °C
As of 10:53 AM on Monday 24 Nov 2014 (Local Time) from PAHO Reporting Station
Broken Clouds Broken Clouds  
Wind Chill: 36°   Ceiling: 5500
Heat Index: 36°   Visibility: 10mi
Dew Point: 33°   Wind: 3mph
Humidity: 89%   Direction: 60°ENE
Pressure: 29.7"   Gusts: NA
Location:  59.7153°N, 150.773°W
Report Text: PAHO 241953Z 06003KT 10SM BKN055 02/01 A2970 RMK AO2 SLP057 T00220006
Loading
Personal Weather Stations






























Interactive Weather Map New forecast layout! Learn more

10-Day Weather Forecast

Advertisements
Track Severe Weather on mobile